Excellent Pescadores — HORK — position and weather

sailwx.info

Track history (hours):
 
Tides and Currents Weather Stations Pressure Air Temp Water Temp Dewpoint Dewpoint Depression Visibility Wind Speed Wind Dir Waves Ship Positions

Excellent Pescadores

Last reported at 2016-Jun-29 15:33 UTC. Time now 2016-Jun-30 05:07 UTC.
Position N 31°21' E 121°40'.

Length 148 m; draft 7 m.

Type: Cargo ship. MMSI: 356291000.

Date/timePositionNaut miles runAvg speedWind from/ knotsBaromVisibWave heightAir tempDewpointWater temp
2016-Jun-29 15:33N 31°21' E 121°40'1111.5
2016-Jun-29 14:33N 31°27' E 121°29'1111.4
2016-Jun-29 13:33N 31°34' E 121°18'1111.5
2016-Jun-29 12:33N 31°42' E 121°09'1610.9
2016-Jun-29 11:04N 31°52' E 120°53'813.8
2016-Jun-29 10:30N 31°59' E 120°50'1211.9
2016-Jun-29 09:30N 31°60' E 120°36'1 0.1
2016-Jun-28 22:16N 31°60' E 120°35'0 0.0
2016-Jun-28 13:16N 31°60' E 120°35'0 0.0
2016-Jun-28 04:04N 31°60' E 120°35'0 0.0
2016-Jun-28 03:16N 31°60' E 120°35'0 0.0
2016-Jun-28 02:22N 31°60' E 120°35'0 0.0
2016-Jun-27 07:21N 31°60' E 120°35'3 0.5
2016-Jun-27 01:32N 31°60' E 120°39'10 9.8
2016-Jun-27 00:33N 31°59' E 120°50'1410.7
2016-Jun-26 23:14N 31°47' E 120°58'811.5
2016-Jun-26 22:32N 31°44' E 121°07'8 7.7
2016-Jun-26 21:31N 31°39' E 121°14'0 0.0
2016-Jun-26 20:31N 31°39' E 121°14'0 0.1
2016-Jun-26 19:28N 31°39' E 121°14'0 0.2
2016-Jun-26 18:31N 31°39' E 121°14'0 0.0
2016-Jun-26 17:31N 31°39' E 121°14'0 0.0
2016-Jun-26 16:31N 31°39' E 121°14'0 0.0
2016-Jun-26 15:28N 31°39' E 121°14'0 0.0
2016-Jun-26 14:31N 31°39' E 121°14'0 0.0
2016-Jun-26 13:31N 31°39' E 121°14'3 3.5
2016-Jun-26 12:33N 31°37' E 121°17'1010.1
2016-Jun-26 11:33N 31°30' E 121°25'28 9.1
2016-Jun-26 08:28N 31°11' E 121°50'  
2016-Jun-20 20:15N 23°60' E 118°24'  
Track history (hours):
 
Tides and Currents Weather Stations Pressure Air Temp Water Temp Dewpoint Dewpoint Depression Visibility Wind Speed Wind Dir Waves Ship Positions

Excellent Pescadores

Last reported at 2016-Jun-29 15:33 UTC. Time now 2016-Jun-30 05:07 UTC.
Position N 31°21' E 121°40'.

Length 148 m; draft 7 m.

Type: Cargo ship. MMSI: 356291000.

Date/timePositionNaut miles runAvg speedWind from/ knotsBaromVisibWave heightAir tempDewpointWater temp
2016-Jun-29 15:33N 31°21' E 121°40'1111.5
2016-Jun-29 14:33N 31°27' E 121°29'1111.4
2016-Jun-29 13:33N 31°34' E 121°18'1111.5
2016-Jun-29 12:33N 31°42' E 121°09'1610.9
2016-Jun-29 11:04N 31°52' E 120°53'813.8
2016-Jun-29 10:30N 31°59' E 120°50'1211.9
2016-Jun-29 09:30N 31°60' E 120°36'1 0.1
2016-Jun-28 22:16N 31°60' E 120°35'0 0.0
2016-Jun-28 13:16N 31°60' E 120°35'0 0.0
2016-Jun-28 04:04N 31°60' E 120°35'0 0.0
2016-Jun-28 03:16N 31°60' E 120°35'0 0.0
2016-Jun-28 02:22N 31°60' E 120°35'0 0.0
2016-Jun-27 07:21N 31°60' E 120°35'3 0.5
2016-Jun-27 01:32N 31°60' E 120°39'10 9.8
2016-Jun-27 00:33N 31°59' E 120°50'1410.7
2016-Jun-26 23:14N 31°47' E 120°58'811.5
2016-Jun-26 22:32N 31°44' E 121°07'8 7.7
2016-Jun-26 21:31N 31°39' E 121°14'0 0.0
2016-Jun-26 20:31N 31°39' E 121°14'0 0.1
2016-Jun-26 19:28N 31°39' E 121°14'0 0.2
2016-Jun-26 18:31N 31°39' E 121°14'0 0.0
2016-Jun-26 17:31N 31°39' E 121°14'0 0.0
2016-Jun-26 16:31N 31°39' E 121°14'0 0.0
2016-Jun-26 15:28N 31°39' E 121°14'0 0.0
2016-Jun-26 14:31N 31°39' E 121°14'0 0.0
2016-Jun-26 13:31N 31°39' E 121°14'3 3.5
2016-Jun-26 12:33N 31°37' E 121°17'1010.1
2016-Jun-26 11:33N 31°30' E 121°25'28 9.1
2016-Jun-26 08:28N 31°11' E 121°50'  
2016-Jun-20 20:15N 23°60' E 118°24'  

Dump ship's entire track history